sensor_id;sensor_type;location;lat;lon;timestamp;P1;durP1;ratioP1;P2;durP2;ratioP2
80245;SDS011;69558;39.208;-77.226;2023-06-22T00:02:18;6.20;;;2.92;;
80245;SDS011;69558;39.208;-77.226;2023-06-22T00:04:45;7.15;;;4.95;;
80245;SDS011;69558;39.208;-77.226;2023-06-22T00:07:11;5.47;;;2.70;;
80245;SDS011;69558;39.208;-77.226;2023-06-22T00:09:37;6.40;;;3.88;;
80245;SDS011;69558;39.208;-77.226;2023-06-22T00:12:04;5.40;;;2.72;;
80245;SDS011;69558;39.208;-77.226;2023-06-22T00:14:30;6.07;;;3.58;;
80245;SDS011;69558;39.208;-77.226;2023-06-22T00:16:56;6.15;;;4.00;;
80245;SDS011;69558;39.208;-77.226;2023-06-22T00:19:24;5.95;;;2.92;;
80245;SDS011;69558;39.208;-77.226;2023-06-22T00:21:50;5.97;;;3.10;;
80245;SDS011;69558;39.208;-77.226;2023-06-22T00:24:19;5.55;;;3.28;;
80245;SDS011;69558;39.208;-77.226;2023-06-22T00:26:47;6.25;;;3.08;;
80245;SDS011;69558;39.208;-77.226;2023-06-22T00:29:14;5.85;;;3.28;;
80245;SDS011;69558;39.208;-77.226;2023-06-22T00:31:40;5.90;;;3.60;;
80245;SDS011;69558;39.208;-77.226;2023-06-22T00:34:06;6.63;;;2.70;;
80245;SDS011;69558;39.208;-77.226;2023-06-22T00:36:34;4.78;;;2.97;;
80245;SDS011;69558;39.208;-77.226;2023-06-22T00:39:01;4.95;;;3.17;;
80245;SDS011;69558;39.208;-77.226;2023-06-22T00:41:27;5.53;;;3.55;;
80245;SDS011;69558;39.208;-77.226;2023-06-22T00:43:54;4.82;;;2.20;;
80245;SDS011;69558;39.208;-77.226;2023-06-22T00:46:21;4.50;;;2.25;;
80245;SDS011;69558;39.208;-77.226;2023-06-22T00:48:48;4.28;;;2.22;;
80245;SDS011;69558;39.208;-77.226;2023-06-22T00:51:16;4.85;;;2.63;;
80245;SDS011;69558;39.208;-77.226;2023-06-22T00:53:42;4.65;;;2.20;;
80245;SDS011;69558;39.208;-77.226;2023-06-22T00:56:18;4.93;;;2.42;;
80245;SDS011;69558;39.208;-77.226;2023-06-22T00:58:45;4.57;;;2.05;;
80245;SDS011;69558;39.208;-77.226;2023-06-22T01:01:13;4.03;;;1.80;;
80245;SDS011;69558;39.208;-77.226;2023-06-22T01:03:40;4.80;;;3.05;;
80245;SDS011;69558;39.208;-77.226;2023-06-22T01:06:07;4.65;;;2.67;;
80245;SDS011;69558;39.208;-77.226;2023-06-22T01:08:42;5.13;;;2.92;;
80245;SDS011;69558;39.208;-77.226;2023-06-22T01:11:37;4.13;;;2.15;;
80245;SDS011;69558;39.208;-77.226;2023-06-22T01:16:53;5.28;;;1.88;;
80245;SDS011;69558;39.208;-77.226;2023-06-22T01:22:15;4.18;;;2.45;;
80245;SDS011;69558;39.208;-77.226;2023-06-22T01:27:28;4.10;;;1.90;;
80245;SDS011;69558;39.208;-77.226;2023-06-22T01:30:07;5.35;;;2.10;;
80245;SDS011;69558;39.208;-77.226;2023-06-22T01:32:36;4.80;;;2.70;;
80245;SDS011;69558;39.208;-77.226;2023-06-22T01:35:05;3.97;;;1.98;;
80245;SDS011;69558;39.208;-77.226;2023-06-22T01:37:33;4.63;;;2.20;;
80245;SDS011;69558;39.208;-77.226;2023-06-22T01:40:01;4.68;;;3.20;;
80245;SDS011;69558;39.208;-77.226;2023-06-22T01:42:30;3.30;;;2.10;;
80245;SDS011;69558;39.208;-77.226;2023-06-22T01:44:57;3.85;;;1.80;;
80245;SDS011;69558;39.208;-77.226;2023-06-22T01:49:50;4.07;;;1.90;;
80245;SDS011;69558;39.208;-77.226;2023-06-22T01:52:18;4.78;;;2.00;;
80245;SDS011;69558;39.208;-77.226;2023-06-22T01:54:46;4.22;;;2.92;;
80245;SDS011;69558;39.208;-77.226;2023-06-22T01:57:13;3.75;;;1.85;;
80245;SDS011;69558;39.208;-77.226;2023-06-22T02:02:23;3.97;;;2.17;;
80245;SDS011;69558;39.208;-77.226;2023-06-22T02:04:59;3.80;;;1.80;;
80245;SDS011;69558;39.208;-77.226;2023-06-22T02:07:42;4.57;;;2.47;;
80245;SDS011;69558;39.208;-77.226;2023-06-22T02:12:39;3.53;;;1.67;;
80245;SDS011;69558;39.208;-77.226;2023-06-22T02:15:09;4.70;;;1.90;;
80245;SDS011;69558;39.208;-77.226;2023-06-22T02:17:35;4.82;;;2.45;;
80245;SDS011;69558;39.208;-77.226;2023-06-22T02:20:03;3.53;;;1.70;;
80245;SDS011;69558;39.208;-77.226;2023-06-22T02:22:33;3.75;;;2.20;;
80245;SDS011;69558;39.208;-77.226;2023-06-22T02:24:59;3.80;;;2.28;;
80245;SDS011;69558;39.208;-77.226;2023-06-22T02:27:26;5.22;;;2.30;;
80245;SDS011;69558;39.208;-77.226;2023-06-22T02:29:52;4.03;;;2.55;;
80245;SDS011;69558;39.208;-77.226;2023-06-22T02:32:18;4.68;;;2.65;;
80245;SDS011;69558;39.208;-77.226;2023-06-22T02:34:44;4.10;;;2.58;;
80245;SDS011;69558;39.208;-77.226;2023-06-22T02:37:13;4.30;;;2.45;;
80245;SDS011;69558;39.208;-77.226;2023-06-22T02:39:40;4.07;;;2.83;;
80245;SDS011;69558;39.208;-77.226;2023-06-22T02:42:06;3.63;;;1.60;;
80245;SDS011;69558;39.208;-77.226;2023-06-22T02:44:32;4.35;;;2.53;;
80245;SDS011;69558;39.208;-77.226;2023-06-22T02:46:58;3.90;;;2.40;;
80245;SDS011;69558;39.208;-77.226;2023-06-22T02:49:24;3.78;;;2.45;;
80245;SDS011;69558;39.208;-77.226;2023-06-22T02:51:50;4.53;;;2.50;;
80245;SDS011;69558;39.208;-77.226;2023-06-22T02:54:16;4.38;;;2.22;;
80245;SDS011;69558;39.208;-77.226;2023-06-22T02:56:42;3.70;;;1.60;;
80245;SDS011;69558;39.208;-77.226;2023-06-22T02:59:11;3.33;;;2.08;;
80245;SDS011;69558;39.208;-77.226;2023-06-22T03:01:37;5.15;;;1.80;;
80245;SDS011;69558;39.208;-77.226;2023-06-22T03:04:06;3.78;;;2.28;;
80245;SDS011;69558;39.208;-77.226;2023-06-22T03:06:32;4.30;;;1.70;;
80245;SDS011;69558;39.208;-77.226;2023-06-22T03:08:59;3.40;;;2.20;;
80245;SDS011;69558;39.208;-77.226;2023-06-22T03:11:27;3.40;;;1.52;;
80245;SDS011;69558;39.208;-77.226;2023-06-22T03:13:52;4.38;;;2.53;;
80245;SDS011;69558;39.208;-77.226;2023-06-22T03:16:19;2.83;;;1.42;;
80245;SDS011;69558;39.208;-77.226;2023-06-22T03:18:45;3.72;;;2.33;;
80245;SDS011;69558;39.208;-77.226;2023-06-22T03:21:11;3.38;;;1.50;;
80245;SDS011;69558;39.208;-77.226;2023-06-22T03:23:37;3.40;;;1.60;;
80245;SDS011;69558;39.208;-77.226;2023-06-22T03:26:03;3.58;;;2.15;;
80245;SDS011;69558;39.208;-77.226;2023-06-22T03:28:29;3.53;;;2.03;;
80245;SDS011;69558;39.208;-77.226;2023-06-22T03:30:58;2.55;;;1.40;;
80245;SDS011;69558;39.208;-77.226;2023-06-22T03:33:24;3.00;;;1.40;;
80245;SDS011;69558;39.208;-77.226;2023-06-22T03:35:50;3.45;;;2.38;;
80245;SDS011;69558;39.208;-77.226;2023-06-22T03:38:16;3.47;;;2.00;;
80245;SDS011;69558;39.208;-77.226;2023-06-22T03:40:43;3.15;;;2.00;;
80245;SDS011;69558;39.208;-77.226;2023-06-22T03:43:08;2.83;;;1.90;;
80245;SDS011;69558;39.208;-77.226;2023-06-22T03:45:34;3.20;;;1.83;;
80245;SDS011;69558;39.208;-77.226;2023-06-22T03:48:01;2.92;;;1.70;;
80245;SDS011;69558;39.208;-77.226;2023-06-22T03:50:27;3.28;;;2.08;;
80245;SDS011;69558;39.208;-77.226;2023-06-22T03:52:53;2.65;;;1.90;;
80245;SDS011;69558;39.208;-77.226;2023-06-22T03:55:21;3.15;;;1.92;;
80245;SDS011;69558;39.208;-77.226;2023-06-22T03:57:48;3.63;;;1.85;;
80245;SDS011;69558;39.208;-77.226;2023-06-22T04:00:14;3.28;;;2.05;;
80245;SDS011;69558;39.208;-77.226;2023-06-22T04:02:41;2.15;;;1.10;;
80245;SDS011;69558;39.208;-77.226;2023-06-22T04:05:08;2.47;;;1.20;;
80245;SDS011;69558;39.208;-77.226;2023-06-22T04:10:03;2.65;;;1.30;;
80245;SDS011;69558;39.208;-77.226;2023-06-22T04:14:55;2.58;;;1.17;;
80245;SDS011;69558;39.208;-77.226;2023-06-22T04:17:22;2.92;;;1.40;;
80245;SDS011;69558;39.208;-77.226;2023-06-22T04:19:50;2.85;;;1.83;;
80245;SDS011;69558;39.208;-77.226;2023-06-22T04:22:16;3.20;;;1.98;;
80245;SDS011;69558;39.208;-77.226;2023-06-22T04:24:42;2.47;;;1.73;;
80245;SDS011;69558;39.208;-77.226;2023-06-22T04:27:10;3.60;;;1.75;;
80245;SDS011;69558;39.208;-77.226;2023-06-22T04:29:36;2.60;;;1.00;;
80245;SDS011;69558;39.208;-77.226;2023-06-22T04:32:03;1.83;;;0.80;;
80245;SDS011;69558;39.208;-77.226;2023-06-22T04:34:30;3.13;;;1.15;;
80245;SDS011;69558;39.208;-77.226;2023-06-22T04:36:56;2.50;;;0.95;;
80245;SDS011;69558;39.208;-77.226;2023-06-22T04:39:22;3.05;;;1.70;;
80245;SDS011;69558;39.208;-77.226;2023-06-22T04:41:49;2.55;;;1.63;;
80245;SDS011;69558;39.208;-77.226;2023-06-22T04:44:19;2.47;;;1.55;;
80245;SDS011;69558;39.208;-77.226;2023-06-22T04:46:51;1.95;;;0.80;;
80245;SDS011;69558;39.208;-77.226;2023-06-22T04:49:29;1.90;;;0.85;;
80245;SDS011;69558;39.208;-77.226;2023-06-22T04:51:58;1.83;;;0.93;;
80245;SDS011;69558;39.208;-77.226;2023-06-22T04:54:25;1.55;;;0.80;;
80245;SDS011;69558;39.208;-77.226;2023-06-22T04:56:51;2.28;;;1.67;;
80245;SDS011;69558;39.208;-77.226;2023-06-22T04:59:22;2.38;;;1.73;;
80245;SDS011;69558;39.208;-77.226;2023-06-22T05:01:54;1.83;;;1.38;;
80245;SDS011;69558;39.208;-77.226;2023-06-22T05:04:21;1.77;;;0.85;;
80245;SDS011;69558;39.208;-77.226;2023-06-22T05:06:51;2.55;;;1.70;;
80245;SDS011;69558;39.208;-77.226;2023-06-22T05:09:18;2.42;;;1.65;;
80245;SDS011;69558;39.208;-77.226;2023-06-22T05:11:45;1.33;;;0.70;;
80245;SDS011;69558;39.208;-77.226;2023-06-22T05:16:38;2.05;;;1.40;;
80245;SDS011;69558;39.208;-77.226;2023-06-22T05:19:04;2.17;;;1.48;;
80245;SDS011;69558;39.208;-77.226;2023-06-22T05:21:30;1.98;;;1.42;;
80245;SDS011;69558;39.208;-77.226;2023-06-22T05:23:57;2.35;;;1.60;;
80245;SDS011;69558;39.208;-77.226;2023-06-22T05:26:28;2.13;;;1.52;;
80245;SDS011;69558;39.208;-77.226;2023-06-22T05:28:55;1.88;;;1.42;;
80245;SDS011;69558;39.208;-77.226;2023-06-22T05:31:22;2.10;;;1.52;;
80245;SDS011;69558;39.208;-77.226;2023-06-22T05:33:48;1.80;;;1.35;;
80245;SDS011;69558;39.208;-77.226;2023-06-22T05:36:16;1.25;;;0.63;;
80245;SDS011;69558;39.208;-77.226;2023-06-22T05:38:45;1.45;;;0.73;;
80245;SDS011;69558;39.208;-77.226;2023-06-22T05:41:11;1.88;;;1.25;;
80245;SDS011;69558;39.208;-77.226;2023-06-22T05:43:36;2.05;;;1.55;;
80245;SDS011;69558;39.208;-77.226;2023-06-22T05:46:03;1.55;;;1.33;;
80245;SDS011;69558;39.208;-77.226;2023-06-22T05:48:30;2.13;;;1.33;;
80245;SDS011;69558;39.208;-77.226;2023-06-22T05:50:56;1.58;;;0.63;;
80245;SDS011;69558;39.208;-77.226;2023-06-22T05:53:23;1.75;;;0.68;;
80245;SDS011;69558;39.208;-77.226;2023-06-22T05:55:48;2.70;;;1.52;;
80245;SDS011;69558;39.208;-77.226;2023-06-22T05:58:15;2.38;;;1.48;;
80245;SDS011;69558;39.208;-77.226;2023-06-22T06:00:41;1.77;;;0.77;;
80245;SDS011;69558;39.208;-77.226;2023-06-22T06:03:08;2.30;;;1.63;;
80245;SDS011;69558;39.208;-77.226;2023-06-22T06:05:35;1.88;;;1.08;;
80245;SDS011;69558;39.208;-77.226;2023-06-22T06:08:02;1.75;;;0.60;;
80245;SDS011;69558;39.208;-77.226;2023-06-22T06:10:32;1.35;;;1.25;;
80245;SDS011;69558;39.208;-77.226;2023-06-22T06:12:59;2.00;;;1.55;;
80245;SDS011;69558;39.208;-77.226;2023-06-22T06:15:27;1.65;;;1.30;;
80245;SDS011;69558;39.208;-77.226;2023-06-22T06:17:54;1.95;;;1.45;;
80245;SDS011;69558;39.208;-77.226;2023-06-22T06:20:22;1.85;;;1.48;;
80245;SDS011;69558;39.208;-77.226;2023-06-22T06:22:50;2.00;;;1.13;;
80245;SDS011;69558;39.208;-77.226;2023-06-22T06:25:16;1.73;;;1.30;;
80245;SDS011;69558;39.208;-77.226;2023-06-22T06:27:45;1.85;;;1.25;;
80245;SDS011;69558;39.208;-77.226;2023-06-22T06:30:12;2.10;;;1.48;;
80245;SDS011;69558;39.208;-77.226;2023-06-22T06:32:39;2.72;;;1.65;;
80245;SDS011;69558;39.208;-77.226;2023-06-22T06:35:06;1.98;;;1.20;;
80245;SDS011;69558;39.208;-77.226;2023-06-22T06:37:37;3.67;;;1.38;;
80245;SDS011;69558;39.208;-77.226;2023-06-22T06:40:04;2.78;;;1.25;;
80245;SDS011;69558;39.208;-77.226;2023-06-22T06:42:37;0.95;;;0.50;;
80245;SDS011;69558;39.208;-77.226;2023-06-22T06:45:06;1.67;;;1.35;;
80245;SDS011;69558;39.208;-77.226;2023-06-22T06:47:35;1.67;;;1.27;;
80245;SDS011;69558;39.208;-77.226;2023-06-22T06:50:02;1.77;;;1.10;;
80245;SDS011;69558;39.208;-77.226;2023-06-22T06:52:29;1.98;;;1.25;;
80245;SDS011;69558;39.208;-77.226;2023-06-22T06:54:55;2.47;;;1.30;;
80245;SDS011;69558;39.208;-77.226;2023-06-22T06:57:22;1.58;;;1.13;;
80245;SDS011;69558;39.208;-77.226;2023-06-22T06:59:48;1.20;;;0.60;;
80245;SDS011;69558;39.208;-77.226;2023-06-22T07:02:15;1.25;;;0.70;;
80245;SDS011;69558;39.208;-77.226;2023-06-22T07:04:41;1.35;;;1.00;;
80245;SDS011;69558;39.208;-77.226;2023-06-22T07:07:07;2.00;;;1.27;;
80245;SDS011;69558;39.208;-77.226;2023-06-22T07:09:33;1.58;;;1.25;;
80245;SDS011;69558;39.208;-77.226;2023-06-22T07:11:59;1.45;;;0.50;;
80245;SDS011;69558;39.208;-77.226;2023-06-22T07:14:25;1.45;;;0.40;;
80245;SDS011;69558;39.208;-77.226;2023-06-22T07:16:51;1.90;;;1.35;;
80245;SDS011;69558;39.208;-77.226;2023-06-22T07:19:24;1.70;;;1.27;;
80245;SDS011;69558;39.208;-77.226;2023-06-22T07:21:51;2.15;;;1.20;;
80245;SDS011;69558;39.208;-77.226;2023-06-22T07:24:17;2.00;;;1.48;;
80245;SDS011;69558;39.208;-77.226;2023-06-22T07:26:46;1.63;;;1.25;;
80245;SDS011;69558;39.208;-77.226;2023-06-22T07:29:19;1.75;;;1.35;;
80245;SDS011;69558;39.208;-77.226;2023-06-22T07:31:49;1.45;;;1.02;;
80245;SDS011;69558;39.208;-77.226;2023-06-22T07:34:16;1.15;;;0.55;;
80245;SDS011;69558;39.208;-77.226;2023-06-22T07:36:43;1.90;;;1.10;;
80245;SDS011;69558;39.208;-77.226;2023-06-22T07:39:10;1.38;;;0.50;;
80245;SDS011;69558;39.208;-77.226;2023-06-22T07:41:37;1.50;;;1.40;;
80245;SDS011;69558;39.208;-77.226;2023-06-22T07:46:31;1.75;;;1.20;;
80245;SDS011;69558;39.208;-77.226;2023-06-22T07:48:58;1.60;;;1.23;;
80245;SDS011;69558;39.208;-77.226;2023-06-22T07:51:24;1.77;;;1.35;;
80245;SDS011;69558;39.208;-77.226;2023-06-22T07:53:51;1.42;;;1.15;;
80245;SDS011;69558;39.208;-77.226;2023-06-22T07:56:16;1.63;;;1.17;;
80245;SDS011;69558;39.208;-77.226;2023-06-22T07:58:46;1.30;;;0.95;;
80245;SDS011;69558;39.208;-77.226;2023-06-22T08:01:15;1.73;;;1.63;;
80245;SDS011;69558;39.208;-77.226;2023-06-22T08:03:42;1.20;;;0.47;;
80245;SDS011;69558;39.208;-77.226;2023-06-22T08:06:08;0.85;;;0.57;;
80245;SDS011;69558;39.208;-77.226;2023-06-22T08:08:35;1.20;;;0.60;;
80245;SDS011;69558;39.208;-77.226;2023-06-22T08:11:02;1.50;;;0.50;;
80245;SDS011;69558;39.208;-77.226;2023-06-22T08:13:28;0.77;;;0.40;;
80245;SDS011;69558;39.208;-77.226;2023-06-22T08:15:54;1.63;;;1.17;;
80245;SDS011;69558;39.208;-77.226;2023-06-22T08:18:20;1.00;;;0.50;;
80245;SDS011;69558;39.208;-77.226;2023-06-22T08:20:46;1.25;;;1.13;;
80245;SDS011;69558;39.208;-77.226;2023-06-22T08:23:12;0.85;;;0.40;;
80245;SDS011;69558;39.208;-77.226;2023-06-22T08:25:38;1.42;;;1.13;;
80245;SDS011;69558;39.208;-77.226;2023-06-22T08:28:04;1.67;;;1.48;;
80245;SDS011;69558;39.208;-77.226;2023-06-22T08:30:31;2.47;;;1.08;;
80245;SDS011;69558;39.208;-77.226;2023-06-22T08:32:57;1.92;;;1.08;;
80245;SDS011;69558;39.208;-77.226;2023-06-22T08:35:23;0.95;;;0.50;;
80245;SDS011;69558;39.208;-77.226;2023-06-22T08:37:49;2.10;;;1.15;;
80245;SDS011;69558;39.208;-77.226;2023-06-22T08:40:19;1.23;;;1.13;;
80245;SDS011;69558;39.208;-77.226;2023-06-22T08:42:46;1.85;;;1.20;;
80245;SDS011;69558;39.208;-77.226;2023-06-22T08:45:12;1.02;;;0.85;;
80245;SDS011;69558;39.208;-77.226;2023-06-22T08:47:39;1.75;;;0.40;;
80245;SDS011;69558;39.208;-77.226;2023-06-22T08:50:07;1.63;;;1.23;;
80245;SDS011;69558;39.208;-77.226;2023-06-22T08:52:34;1.13;;;0.57;;
80245;SDS011;69558;39.208;-77.226;2023-06-22T08:55:00;0.77;;;0.40;;
80245;SDS011;69558;39.208;-77.226;2023-06-22T08:57:29;1.80;;;1.33;;
80245;SDS011;69558;39.208;-77.226;2023-06-22T08:59:55;1.17;;;0.98;;
80245;SDS011;69558;39.208;-77.226;2023-06-22T09:02:26;0.95;;;0.68;;
80245;SDS011;69558;39.208;-77.226;2023-06-22T09:04:56;1.50;;;1.25;;
80245;SDS011;69558;39.208;-77.226;2023-06-22T09:07:23;1.70;;;1.17;;
80245;SDS011;69558;39.208;-77.226;2023-06-22T09:09:50;1.10;;;0.85;;
80245;SDS011;69558;39.208;-77.226;2023-06-22T09:12:17;1.08;;;0.63;;
80245;SDS011;69558;39.208;-77.226;2023-06-22T09:14:49;1.42;;;1.05;;
80245;SDS011;69558;39.208;-77.226;2023-06-22T09:17:15;0.57;;;0.38;;
80245;SDS011;69558;39.208;-77.226;2023-06-22T09:19:42;1.08;;;0.98;;
80245;SDS011;69558;39.208;-77.226;2023-06-22T09:22:07;1.92;;;1.67;;
80245;SDS011;69558;39.208;-77.226;2023-06-22T09:24:33;0.80;;;0.40;;
80245;SDS011;69558;39.208;-77.226;2023-06-22T09:26:59;1.17;;;0.98;;
80245;SDS011;69558;39.208;-77.226;2023-06-22T09:29:25;1.77;;;1.17;;
80245;SDS011;69558;39.208;-77.226;2023-06-22T09:31:51;1.25;;;0.45;;
80245;SDS011;69558;39.208;-77.226;2023-06-22T09:34:21;1.40;;;0.60;;
80245;SDS011;69558;39.208;-77.226;2023-06-22T09:36:47;1.10;;;0.68;;
80245;SDS011;69558;39.208;-77.226;2023-06-22T09:39:13;0.98;;;0.60;;
80245;SDS011;69558;39.208;-77.226;2023-06-22T09:41:39;0.90;;;0.85;;
80245;SDS011;69558;39.208;-77.226;2023-06-22T09:44:05;1.65;;;1.20;;
80245;SDS011;69558;39.208;-77.226;2023-06-22T09:46:31;0.82;;;0.63;;
80245;SDS011;69558;39.208;-77.226;2023-06-22T09:48:57;1.15;;;0.65;;
80245;SDS011;69558;39.208;-77.226;2023-06-22T09:51:23;1.23;;;1.02;;
80245;SDS011;69558;39.208;-77.226;2023-06-22T09:53:50;0.70;;;0.38;;
80245;SDS011;69558;39.208;-77.226;2023-06-22T09:56:16;1.13;;;0.50;;
80245;SDS011;69558;39.208;-77.226;2023-06-22T09:58:56;1.08;;;0.82;;
80245;SDS011;69558;39.208;-77.226;2023-06-22T10:01:28;0.80;;;0.50;;
80245;SDS011;69558;39.208;-77.226;2023-06-22T10:03:55;1.33;;;1.23;;
80245;SDS011;69558;39.208;-77.226;2023-06-22T10:06:22;1.10;;;0.47;;
80245;SDS011;69558;39.208;-77.226;2023-06-22T10:08:51;1.63;;;1.20;;
80245;SDS011;69558;39.208;-77.226;2023-06-22T10:11:17;1.23;;;1.02;;
80245;SDS011;69558;39.208;-77.226;2023-06-22T10:13:43;1.00;;;0.50;;
80245;SDS011;69558;39.208;-77.226;2023-06-22T10:16:09;0.80;;;0.40;;
80245;SDS011;69558;39.208;-77.226;2023-06-22T10:18:36;1.48;;;0.50;;
80245;SDS011;69558;39.208;-77.226;2023-06-22T10:21:02;0.70;;;0.22;;
80245;SDS011;69558;39.208;-77.226;2023-06-22T10:23:33;0.60;;;0.30;;
80245;SDS011;69558;39.208;-77.226;2023-06-22T10:25:59;1.95;;;1.35;;
80245;SDS011;69558;39.208;-77.226;2023-06-22T10:28:25;1.42;;;1.02;;
80245;SDS011;69558;39.208;-77.226;2023-06-22T10:30:51;1.50;;;1.27;;
80245;SDS011;69558;39.208;-77.226;2023-06-22T10:33:18;1.20;;;1.10;;
80245;SDS011;69558;39.208;-77.226;2023-06-22T10:35:45;0.63;;;0.40;;
80245;SDS011;69558;39.208;-77.226;2023-06-22T10:38:11;1.40;;;1.30;;
80245;SDS011;69558;39.208;-77.226;2023-06-22T10:40:37;1.30;;;1.15;;
80245;SDS011;69558;39.208;-77.226;2023-06-22T10:43:04;1.80;;;0.88;;
80245;SDS011;69558;39.208;-77.226;2023-06-22T10:45:30;1.38;;;0.57;;
80245;SDS011;69558;39.208;-77.226;2023-06-22T10:47:57;1.17;;;0.40;;
80245;SDS011;69558;39.208;-77.226;2023-06-22T10:50:22;1.25;;;1.05;;
80245;SDS011;69558;39.208;-77.226;2023-06-22T10:52:53;1.00;;;0.40;;
80245;SDS011;69558;39.208;-77.226;2023-06-22T10:55:21;0.60;;;0.30;;
80245;SDS011;69558;39.208;-77.226;2023-06-22T10:57:47;1.55;;;1.23;;
80245;SDS011;69558;39.208;-77.226;2023-06-22T11:02:42;0.68;;;0.30;;
80245;SDS011;69558;39.208;-77.226;2023-06-22T11:05:09;1.55;;;1.05;;
80245;SDS011;69558;39.208;-77.226;2023-06-22T11:07:36;1.23;;;1.13;;
80245;SDS011;69558;39.208;-77.226;2023-06-22T11:10:07;1.20;;;1.10;;
80245;SDS011;69558;39.208;-77.226;2023-06-22T11:12:35;1.10;;;0.30;;
80245;SDS011;69558;39.208;-77.226;2023-06-22T11:15:04;0.85;;;0.30;;
80245;SDS011;69558;39.208;-77.226;2023-06-22T11:17:31;0.80;;;0.40;;
80245;SDS011;69558;39.208;-77.226;2023-06-22T11:19:57;1.33;;;1.00;;
80245;SDS011;69558;39.208;-77.226;2023-06-22T11:22:26;1.38;;;1.17;;
80245;SDS011;69558;39.208;-77.226;2023-06-22T11:24:55;0.40;;;0.30;;
80245;SDS011;69558;39.208;-77.226;2023-06-22T11:27:21;1.27;;;0.90;;
80245;SDS011;69558;39.208;-77.226;2023-06-22T11:29:47;1.45;;;1.33;;
80245;SDS011;69558;39.208;-77.226;2023-06-22T11:32:15;1.65;;;1.23;;
80245;SDS011;69558;39.208;-77.226;2023-06-22T11:34:42;1.17;;;0.80;;
80245;SDS011;69558;39.208;-77.226;2023-06-22T11:37:08;1.30;;;1.00;;
80245;SDS011;69558;39.208;-77.226;2023-06-22T11:39:35;0.50;;;0.40;;
80245;SDS011;69558;39.208;-77.226;2023-06-22T11:42:01;1.08;;;0.98;;
80245;SDS011;69558;39.208;-77.226;2023-06-22T11:44:27;1.13;;;0.93;;
80245;SDS011;69558;39.208;-77.226;2023-06-22T11:46:55;0.60;;;0.32;;
80245;SDS011;69558;39.208;-77.226;2023-06-22T11:49:21;1.35;;;1.08;;
80245;SDS011;69558;39.208;-77.226;2023-06-22T11:51:47;1.00;;;0.40;;
80245;SDS011;69558;39.208;-77.226;2023-06-22T11:54:14;1.52;;;1.15;;
80245;SDS011;69558;39.208;-77.226;2023-06-22T11:56:42;0.57;;;0.30;;
80245;SDS011;69558;39.208;-77.226;2023-06-22T11:59:09;0.70;;;0.30;;
80245;SDS011;69558;39.208;-77.226;2023-06-22T12:01:35;0.80;;;0.77;;
80245;SDS011;69558;39.208;-77.226;2023-06-22T12:04:03;1.10;;;1.00;;
80245;SDS011;69558;39.208;-77.226;2023-06-22T12:06:31;1.45;;;1.35;;
80245;SDS011;69558;39.208;-77.226;2023-06-22T12:11:30;1.58;;;1.13;;
80245;SDS011;69558;39.208;-77.226;2023-06-22T12:13:57;1.10;;;0.93;;
80245;SDS011;69558;39.208;-77.226;2023-06-22T12:16:28;0.77;;;0.40;;
80245;SDS011;69558;39.208;-77.226;2023-06-22T12:18:55;1.33;;;1.23;;
80245;SDS011;69558;39.208;-77.226;2023-06-22T12:21:21;1.75;;;1.65;;
80245;SDS011;69558;39.208;-77.226;2023-06-22T12:23:47;0.50;;;0.40;;
80245;SDS011;69558;39.208;-77.226;2023-06-22T12:26:15;1.17;;;1.08;;
80245;SDS011;69558;39.208;-77.226;2023-06-22T12:28:41;2.03;;;1.05;;
80245;SDS011;69558;39.208;-77.226;2023-06-22T12:31:07;0.95;;;0.40;;
80245;SDS011;69558;39.208;-77.226;2023-06-22T12:33:34;1.23;;;1.00;;
80245;SDS011;69558;39.208;-77.226;2023-06-22T12:36:01;1.42;;;1.10;;
80245;SDS011;69558;39.208;-77.226;2023-06-22T12:38:26;0.43;;;0.30;;
80245;SDS011;69558;39.208;-77.226;2023-06-22T12:40:52;1.38;;;0.93;;
80245;SDS011;69558;39.208;-77.226;2023-06-22T12:43:20;0.88;;;0.40;;
80245;SDS011;69558;39.208;-77.226;2023-06-22T12:45:47;0.80;;;0.80;;
80245;SDS011;69558;39.208;-77.226;2023-06-22T12:48:13;1.10;;;1.00;;
80245;SDS011;69558;39.208;-77.226;2023-06-22T12:53:06;0.80;;;0.40;;
80245;SDS011;69558;39.208;-77.226;2023-06-22T12:55:33;1.67;;;1.05;;
80245;SDS011;69558;39.208;-77.226;2023-06-22T12:58:01;0.68;;;0.30;;
80245;SDS011;69558;39.208;-77.226;2023-06-22T13:00:27;1.63;;;0.30;;
80245;SDS011;69558;39.208;-77.226;2023-06-22T13:02:53;0.60;;;0.30;;
80245;SDS011;69558;39.208;-77.226;2023-06-22T13:05:19;1.02;;;0.50;;
80245;SDS011;69558;39.208;-77.226;2023-06-22T13:07:45;0.40;;;0.30;;
80245;SDS011;69558;39.208;-77.226;2023-06-22T13:10:11;1.15;;;1.00;;
80245;SDS011;69558;39.208;-77.226;2023-06-22T13:12:38;1.88;;;1.00;;
80245;SDS011;69558;39.208;-77.226;2023-06-22T13:15:05;1.70;;;1.00;;
80245;SDS011;69558;39.208;-77.226;2023-06-22T13:17:31;1.02;;;0.95;;
80245;SDS011;69558;39.208;-77.226;2023-06-22T13:19:57;0.85;;;0.35;;
80245;SDS011;69558;39.208;-77.226;2023-06-22T13:22:32;0.68;;;0.30;;
80245;SDS011;69558;39.208;-77.226;2023-06-22T13:25:05;0.60;;;0.30;;
80245;SDS011;69558;39.208;-77.226;2023-06-22T13:27:32;1.42;;;1.17;;
80245;SDS011;69558;39.208;-77.226;2023-06-22T13:29:59;0.40;;;0.30;;
80245;SDS011;69558;39.208;-77.226;2023-06-22T13:32:25;2.95;;;1.15;;
80245;SDS011;69558;39.208;-77.226;2023-06-22T13:34:52;1.20;;;0.85;;
80245;SDS011;69558;39.208;-77.226;2023-06-22T13:37:19;0.88;;;0.30;;
80245;SDS011;69558;39.208;-77.226;2023-06-22T13:39:46;1.17;;;0.90;;
80245;SDS011;69558;39.208;-77.226;2023-06-22T13:42:11;1.33;;;0.95;;
80245;SDS011;69558;39.208;-77.226;2023-06-22T13:44:38;1.13;;;1.00;;
80245;SDS011;69558;39.208;-77.226;2023-06-22T13:47:05;1.55;;;0.88;;
80245;SDS011;69558;39.208;-77.226;2023-06-22T13:49:31;1.05;;;0.90;;
80245;SDS011;69558;39.208;-77.226;2023-06-22T13:51:57;1.15;;;0.95;;
80245;SDS011;69558;39.208;-77.226;2023-06-22T13:54:23;1.25;;;0.88;;
80245;SDS011;69558;39.208;-77.226;2023-06-22T13:56:49;1.27;;;0.52;;
80245;SDS011;69558;39.208;-77.226;2023-06-22T13:59:17;0.47;;;0.30;;
80245;SDS011;69558;39.208;-77.226;2023-06-22T14:01:47;2.70;;;0.93;;
80245;SDS011;69558;39.208;-77.226;2023-06-22T14:04:18;0.52;;;0.20;;
80245;SDS011;69558;39.208;-77.226;2023-06-22T14:06:51;1.58;;;0.98;;
80245;SDS011;69558;39.208;-77.226;2023-06-22T14:09:17;1.20;;;0.88;;
80245;SDS011;69558;39.208;-77.226;2023-06-22T14:11:43;0.57;;;0.20;;
80245;SDS011;69558;39.208;-77.226;2023-06-22T14:14:10;0.60;;;0.30;;
80245;SDS011;69558;39.208;-77.226;2023-06-22T14:16:36;0.45;;;0.30;;
80245;SDS011;69558;39.208;-77.226;2023-06-22T14:19:02;1.00;;;0.90;;
80245;SDS011;69558;39.208;-77.226;2023-06-22T14:21:35;1.00;;;0.80;;
80245;SDS011;69558;39.208;-77.226;2023-06-22T14:24:01;1.08;;;0.98;;
80245;SDS011;69558;39.208;-77.226;2023-06-22T14:26:27;0.52;;;0.20;;
80245;SDS011;69558;39.208;-77.226;2023-06-22T14:28:53;0.90;;;0.30;;
80245;SDS011;69558;39.208;-77.226;2023-06-22T14:31:19;1.00;;;0.90;;
80245;SDS011;69558;39.208;-77.226;2023-06-22T14:33:46;0.43;;;0.20;;
80245;SDS011;69558;39.208;-77.226;2023-06-22T14:36:13;1.33;;;1.05;;
80245;SDS011;69558;39.208;-77.226;2023-06-22T14:38:40;1.45;;;0.88;;
80245;SDS011;69558;39.208;-77.226;2023-06-22T14:41:06;1.15;;;0.98;;
80245;SDS011;69558;39.208;-77.226;2023-06-22T14:43:32;1.15;;;1.05;;
80245;SDS011;69558;39.208;-77.226;2023-06-22T14:45:59;0.98;;;0.98;;
80245;SDS011;69558;39.208;-77.226;2023-06-22T14:48:25;0.70;;;0.43;;
80245;SDS011;69558;39.208;-77.226;2023-06-22T14:50:51;0.82;;;0.32;;
80245;SDS011;69558;39.208;-77.226;2023-06-22T14:53:19;1.38;;;0.95;;
80245;SDS011;69558;39.208;-77.226;2023-06-22T14:55:45;0.70;;;0.30;;